• Join FlightAware (Why Join?)
  • Login
  • US Flag 
02:55PM EST


 

Airport Tracker/Info


-or-


 

Live Flight TrackerFlight Track Log ✈ N22WU ✈ 18-Jun-2013 ✈ KTDZ - KBTL

Flight Track Log - Related Links

Times and Time Zones

All times are in EDT time to prevent confusion due to time zone crossing. See the N22WU flight status page for this flight to view local times or setup timezone preferences in your user account.

Time Position Orientation Groundspeed Altitude Reporting Facility
EDT Latitude Longitude Course Direction KTS MPH feet Rate Location/Type
11:32PM 41.9294 -84.3036 300° West 148 170 4,400  Level Chicago Center
11:33PM 41.9489 -84.3528 298° West 149 171 4,400  Level Chicago Center
11:34PM 41.9686 -84.4025 298° West 149 171 4,400  Level Chicago Center
11:35PM 41.9878 -84.4511 298° West 150 173 4,400  Level Chicago Center
11:36PM 42.0081 -84.5003 299° West 150 173 4,400  Level Chicago Center
11:37PM 42.0272 -84.5503 297° West 150 173 4,400  Level Chicago Center
11:38PM 42.0467 -84.5994 298° West 150 173 4,400  Level Chicago Center
11:39PM 42.0667 -84.6486 299° West 150 173 4,400  Level Chicago Center
11:40PM 42.0861 -84.6986 298° West 150 173 4,400  Level Chicago Center
11:41PM 42.1097 -84.7581 298° West 151 174 4,400  Level Chicago Center
11:42PM 42.1300 -84.8103 298° West 155 178 4,400  Level Chicago Center
11:44PM 42.1417 -84.8592 288° West  Level FlightAware Approximate
11:51PM 42.2619 -85.1437 306° West  Level Estimated
11:52PM 42.2747 -85.1872 292° West  Level FlightAware Approximate
11:53PM 42.2937 -85.2374 304° West  Level FlightAware Approximate
11:54PM 42.3000 -85.2500 304° West  Level FlightAware Approximate
11:55PM 42.3065 -85.2501 304° West  Level Estimated
11:56PM 42.3000 -85.2500 304° West  Level FlightAware Approximate
11:57PM 42.3065 -85.2501 304° West  Level Estimated
11:58PM 42.3000 -85.2500 304° West  Level FlightAware Approximate
11:59PM 42.3065 -85.2501 304° West  Level Estimated
12:00AM 42.3000 -85.2500 304° West  Level FlightAware Approximate
12:01AM 42.3065 -85.2501 304° West  Level Estimated
12:02AM 42.3000 -85.2500 304° West  Level FlightAware Approximate
12:03AM 42.3065 -85.2501 304° West  Level Estimated
12:04AM 42.3000 -85.2500 304° West  Level FlightAware Approximate
12:05AM 42.3065 -85.2501 304° West  Level Estimated
12:06AM 42.3000 -85.2500 304° West  Level FlightAware Approximate
12:07AM 42.3065 -85.2501 304° West  Level Estimated
12:08AM 42.3000 -85.2500 304° West  Level FlightAware Approximate
12:09AM 42.3065 -85.2501 304° West  Level Estimated
12:10AM 42.3000 -85.2500 304° West  Level FlightAware Approximate
12:11AM 42.3065 -85.2501 304° West  Level Estimated
12:12AM 42.3000 -85.2500 304° West  Level FlightAware Approximate
12:13AM 42.3065 -85.2501 304° West  Level Estimated
12:14AM 42.3000 -85.2500 304° West  Level FlightAware Approximate
12:15AM 42.3065 -85.2501 304° West  Level Estimated
12:16AM 42.3000 -85.2500 304° West  Level FlightAware Approximate
12:17AM 42.3065 -85.2501 304° West  Level Estimated
12:18AM 42.3000 -85.2500 304° West  Level FlightAware Approximate
12:19AM 42.3065 -85.2501 304° West  Level Estimated
12:20AM 42.3000 -85.2500 304° West  Level FlightAware Approximate
12:21AM 42.3065 -85.2501 304° West  Level Estimated
12:22AM 42.3000 -85.2500 304° West  Level FlightAware Approximate
12:23AM 42.3065 -85.2501 304° West  Level Estimated
12:24AM 42.3000 -85.2500 304° West  Level FlightAware Approximate
12:25AM 42.3065 -85.2501 304° West  Level Estimated
12:26AM 42.3000 -85.2500 304° West  Level FlightAware Approximate
12:27AM 42.3065 -85.2501 304° West  Level Estimated
12:28AM 42.3000 -85.2500 304° West  Level FlightAware Approximate
12:29AM 42.3065 -85.2501 304° West  Level Estimated
12:30AM 42.3000 -85.2500 304° West  Level FlightAware Approximate
12:31AM 42.3065 -85.2501 304° West  Level Estimated
12:32AM 42.3000 -85.2500 304° West  Level FlightAware Approximate
12:33AM 42.3065 -85.2501 304° West  Level Estimated
12:34AM 42.3000 -85.2500 304° West  Level FlightAware Approximate
12:35AM 42.3065 -85.2501 304° West  Level Estimated
12:36AM 42.3000 -85.2500 304° West  Level FlightAware Approximate
12:37AM 42.3065 -85.2501 304° West  Level Estimated
12:38AM 42.3000 -85.2500 304° West  Level FlightAware Approximate
12:39AM 42.3065 -85.2501 304° West  Level Estimated
12:40AM 42.3000 -85.2500 304° West  Level FlightAware Approximate
12:41AM 42.3065 -85.2501 304° West  Level Estimated
12:42AM 42.3000 -85.2500 304° West  Level FlightAware Approximate
12:43AM 42.3065 -85.2501 304° West  Level Estimated
12:44AM 42.3000 -85.2500 304° West  Level FlightAware Approximate
12:45AM 42.3065 -85.2501 304° West  Level Estimated
12:46AM 42.3000 -85.2500 304° West  Level FlightAware Approximate